Time;durP1;ratioP1;P1;durP2;ratioP2;P2;SDS_P1;SDS_P2;PMS_P1;PMS_P2;Temp;Humidity;BMP_temperature;BMP_pressure;BME280_temperature;BME280_humidity;BME280_pressure;Samples;Min_cycle;Max_cycle;Signal;HPM_P1;HPM_P2
2022/10/11 00:01:40;;;;;;;6.42;2.60;;;;;;;3.71;100.00;100460.61;1748130;80;21062;-70
2022/10/11 00:04:07;;;;;;;7.97;2.70;;;;;;;3.73;100.00;100456.34;1740799;80;21023;-70
2022/10/11 00:06:36;;;;;;;6.25;3.33;;;;;;;3.73;100.00;100449.61;1732642;82;21067;-69
2022/10/11 00:09:04;;;;;;;7.55;3.30;;;;;;;3.70;100.00;100452.73;1743352;80;21005;-70
2022/10/11 00:11:32;;;;;;;6.47;3.65;;;;;;;3.58;100.00;100443.11;1751560;80;21098;-70
2022/10/11 00:14:00;;;;;;;6.72;3.92;;;;;;;3.49;100.00;100446.55;1738641;80;21571;-69
2022/10/11 00:16:26;;;;;;;9.75;3.98;;;;;;;3.40;100.00;100447.78;1736070;80;21054;-69
2022/10/11 00:18:54;;;;;;;7.03;3.37;;;;;;;3.38;100.00;100447.18;1714570;81;21448;-70
2022/10/11 00:21:20;;;;;;;6.95;3.10;;;;;;;3.31;100.00;100453.08;1733832;81;21065;-70
2022/10/11 00:23:47;;;;;;;7.83;3.92;;;;;;;3.21;100.00;100451.84;1715026;80;21050;-69
2022/10/11 00:26:15;;;;;;;6.30;3.60;;;;;;;3.05;100.00;100440.16;1724413;81;21564;-70
2022/10/11 00:28:43;;;;;;;10.00;4.03;;;;;;;2.92;100.00;100445.81;1735647;81;20991;-70
2022/10/11 00:31:12;;;;;;;8.50;3.27;;;;;;;2.87;100.00;100440.20;1744974;80;21067;-70
2022/10/11 00:33:38;;;;;;;7.60;3.62;;;;;;;2.86;100.00;100441.78;1729171;80;21391;-69
2022/10/11 00:36:06;;;;;;;6.00;3.33;;;;;;;2.84;100.00;100447.86;1734615;80;21031;-69
2022/10/11 00:38:33;;;;;;;6.78;3.50;;;;;;;2.82;100.00;100438.67;1736329;81;20983;-69
2022/10/11 00:40:59;;;;;;;6.83;3.55;;;;;;;2.79;100.00;100440.42;1724392;81;21091;-69
2022/10/11 00:43:27;;;;;;;8.33;4.00;;;;;;;2.75;100.00;100443.20;1735242;81;21020;-69
2022/10/11 00:46:01;;;;;;;8.28;3.90;;;;;;;2.72;100.00;100442.78;1734182;80;21062;-69
2022/10/11 00:48:44;;;;;;;8.55;3.67;;;;;;;2.71;100.00;100439.78;1739153;80;21000;-69
2022/10/11 00:51:21;;;;;;;6.80;3.45;;;;;;;2.77;100.00;100438.95;1737993;80;21067;-69
2022/10/11 00:53:48;;;;;;;7.83;3.50;;;;;;;2.82;100.00;100447.25;1687994;83;21431;-69
2022/10/11 00:56:22;;;;;;;7.87;3.40;;;;;;;2.84;100.00;100445.17;1695191;82;21056;-69
2022/10/11 00:58:49;;;;;;;12.00;3.55;;;;;;;2.85;100.00;100437.42;1749472;80;20998;-69
2022/10/11 01:01:15;;;;;;;9.75;3.80;;;;;;;2.84;100.00;100438.45;1725459;81;21699;-69
2022/10/11 01:03:43;;;;;;;6.78;3.35;;;;;;;2.79;100.00;100439.08;1741198;80;21007;-69
2022/10/11 01:06:10;;;;;;;;;;;;;;;2.75;100.00;100443.20;1741517;80;21143;-69
2022/10/11 01:08:37;;;;;;;6.83;3.22;;;;;;;2.77;100.00;100441.64;1746525;80;20128;-69
2022/10/11 01:11:04;;;;;;;9.50;4.22;;;;;;;2.78;100.00;100448.69;1739396;80;21617;-70
2022/10/11 01:14:15;;;;;;;5.80;3.60;;;;;;;2.80;100.00;100452.81;1748493;80;21087;-69
2022/10/11 01:17:07;;;;;;;7.40;3.30;;;;;;;2.81;100.00;100450.96;1649795;85;21091;-69
2022/10/11 01:19:54;;;;;;;4.72;2.67;;;;;;;2.77;100.00;100448.36;1714677;81;22390;-69
2022/10/11 01:22:29;;;;;;;7.60;3.23;;;;;;;2.73;100.00;100451.17;1727830;81;21094;-69
2022/10/11 01:25:28;;;;;;;7.65;3.50;;;;;;;2.70;100.00;100456.42;1731557;82;21002;-69
2022/10/11 01:28:37;;;;;;;6.58;3.10;;;;;;;2.75;100.00;100453.13;1740294;80;21547;-69
2022/10/11 01:31:15;;;;;;;6.17;3.20;;;;;;;2.80;100.00;100457.39;1747372;81;21054;-69
2022/10/11 01:33:46;;;;;;;6.78;3.40;;;;;;;2.80;100.00;100456.05;1704424;80;21036;-69
2022/10/11 01:36:27;;;;;;;6.22;3.12;;;;;;;2.79;100.00;100461.94;1741646;80;21082;-69
2022/10/11 01:39:19;;;;;;;6.12;3.15;;;;;;;2.74;100.00;100448.77;1740209;80;21039;-69
2022/10/11 01:41:48;;;;;;;9.70;4.70;;;;;;;2.63;100.00;100446.67;1738900;81;21075;-70
2022/10/11 01:44:15;;;;;;;9.75;4.17;;;;;;;2.53;100.00;100448.92;1744757;80;20999;-69
2022/10/11 01:46:41;;;;;;;8.78;4.03;;;;;;;2.49;100.00;100450.67;1743641;80;21537;-70
2022/10/11 01:49:08;;;;;;;8.30;3.92;;;;;;;2.52;100.00;100453.47;1743092;81;21482;-69
2022/10/11 01:51:42;;;;;;;10.98;4.03;;;;;;;2.56;100.00;100451.20;1738643;80;21069;-69
2022/10/11 01:54:19;;;;;;;7.60;3.83;;;;;;;2.57;100.00;100452.36;1711136;82;21502;-69
2022/10/11 01:57:20;;;;;;;9.25;4.00;;;;;;;2.57;100.00;100448.33;1731448;80;21717;-69
2022/10/11 02:00:05;;;;;;;8.20;4.72;;;;;;;2.54;100.00;100448.73;1756315;80;21078;-69
2022/10/11 02:03:12;;;;;;;11.50;4.75;;;;;;;2.46;100.00;100447.56;1754259;80;21052;-69
2022/10/11 02:05:54;;;;;;;8.40;4.35;;;;;;;2.41;100.00;100450.85;1709438;82;21561;-69
2022/10/11 02:08:41;;;;;;;6.83;3.70;;;;;;;2.36;100.00;100447.13;1681004;83;21469;-69
2022/10/11 02:11:16;;;;;;;8.68;3.90;;;;;;;2.31;100.00;100447.72;1736462;80;21141;-70
2022/10/11 02:14:19;;;;;;;9.40;3.60;;;;;;;2.26;100.00;100449.36;1739911;80;21894;-69
2022/10/11 02:16:51;;;;;;;9.08;4.25;;;;;;;2.24;100.00;100454.09;1729858;80;21109;-69
2022/10/11 02:19:19;;;;;;;7.78;3.55;;;;;;;2.14;100.00;100449.09;1729924;80;21660;-69
2022/10/11 02:21:49;;;;;;;7.65;3.25;;;;;;;2.06;100.00;100442.55;1748436;80;21080;-69
2022/10/11 02:24:18;;;;;;;6.85;3.30;;;;;;;2.03;100.00;100442.11;1735080;80;21014;-69
2022/10/11 02:26:51;;;;;;;6.15;3.15;;;;;;;2.04;100.00;100439.75;1739994;81;21063;-69
2022/10/11 02:29:16;;;;;;;7.53;3.35;;;;;;;2.06;100.00;100449.26;1740809;80;21439;-69
2022/10/11 02:31:43;;;;;;;;;;;;;;;2.06;100.00;100446.57;1756412;80;21058;-69
2022/10/11 02:34:21;;;;;;;11.48;3.30;;;;;;;2.06;100.00;100453.28;1745783;80;20126;-69
2022/10/11 02:36:55;;;;;;;7.40;3.65;;;;;;;1.93;100.00;100448.69;1737971;80;21073;-69
2022/10/11 02:39:30;;;;;;;6.75;3.45;;;;;;;1.88;100.00;100453.81;1756780;80;21562;-69
2022/10/11 02:41:58;;;;;;;6.83;3.12;;;;;;;1.90;100.00;100457.15;1718349;80;21471;-70
2022/10/11 02:44:38;;;;;;;9.43;2.95;;;;;;;1.93;100.00;100455.91;1730981;81;21067;-70
2022/10/11 02:47:04;;;;;;;7.58;3.12;;;;;;;1.95;100.00;100456.02;1747453;80;21051;-69
2022/10/11 02:49:30;;;;;;;;;;;;;;;1.99;100.00;100447.05;1734682;80;21051;-69
2022/10/11 02:51:57;;;;;;;7.03;2.80;;;;;;;2.03;100.00;100454.20;1746443;81;20152;-69
2022/10/11 02:54:24;;;;;;;6.65;3.00;;;;;;;2.00;100.00;100457.61;1736600;80;21436;-69
2022/10/11 02:56:51;;;;;;;6.53;3.33;;;;;;;1.98;100.00;100454.28;1746126;80;21077;-69
2022/10/11 02:59:18;;;;;;;7.53;3.22;;;;;;;1.93;100.00;100450.54;1745525;81;21007;-69
2022/10/11 03:01:45;;;;;;;7.47;3.50;;;;;;;1.89;100.00;100450.11;1751208;80;21604;-70
2022/10/11 03:04:11;;;;;;;5.62;2.98;;;;;;;1.88;100.00;100448.45;1745483;80;21038;-69
2022/10/11 03:06:38;;;;;;;7.15;3.20;;;;;;;1.95;100.00;100444.45;1700925;82;21075;-69
2022/10/11 03:09:04;;;;;;;5.40;3.00;;;;;;;1.98;100.00;100441.39;1692852;83;21004;-70
2022/10/11 03:11:30;;;;;;;5.08;2.98;;;;;;;2.00;100.00;100437.98;1744733;80;21079;-70
2022/10/11 03:13:58;;;;;;;7.33;3.62;;;;;;;2.00;100.00;100435.30;1749003;80;20979;-70
2022/10/11 03:16:25;;;;;;;5.53;3.58;;;;;;;1.97;100.00;100441.91;1746750;80;21074;-69
2022/10/11 03:18:52;;;;;;;6.20;3.12;;;;;;;1.92;100.00;100440.82;1741044;80;21129;-69
2022/10/11 03:21:18;;;;;;;4.80;2.87;;;;;;;1.90;100.00;100438.86;1693958;83;21071;-69
2022/10/11 03:23:45;;;;;;;5.97;3.20;;;;;;;1.92;100.00;100438.97;1688168;82;21020;-69
2022/10/11 03:26:11;;;;;;;;;;;;;;;1.93;100.00;100446.52;1734115;80;21578;-69
2022/10/11 03:28:38;;;;;;;7.35;3.15;;;;;;;1.93;100.00;100446.00;1742622;80;20458;-70
2022/10/11 03:40:32;;;;;;;7.78;3.52;;;;;;;1.78;100.00;100431.03;1800127;78;24411;-69
2022/10/11 03:42:59;;;;;;;9.95;4.15;;;;;;;1.77;100.00;100451.67;1740444;80;20994;-70
2022/10/11 03:45:25;;;;;;;7.78;4.17;;;;;;;1.78;100.00;100450.66;1762059;80;21030;-70
2022/10/11 03:47:52;;;;;;;7.60;4.17;;;;;;;1.78;100.00;100450.66;1752896;80;21580;-69
2022/10/11 03:50:18;;;;;;;9.08;4.78;;;;;;;1.75;100.00;100451.57;1751639;80;21416;-69
2022/10/11 03:52:44;;;;;;;10.32;4.72;;;;;;;1.68;100.00;100449.36;1752786;81;21619;-69
2022/10/11 03:55:11;;;;;;;8.50;5.03;;;;;;;1.60;100.00;100448.99;1752393;81;21109;-69
2022/10/11 03:57:37;;;;;;;8.10;4.72;;;;;;;1.57;100.00;100452.58;1753520;80;21094;-69
2022/10/11 04:00:06;;;;;;;8.83;4.78;;;;;;;1.59;100.00;100447.87;1758346;80;21054;-70
2022/10/11 04:02:33;;;;;;;7.95;4.90;;;;;;;1.60;100.00;100448.99;1732757;81;21388;-69
2022/10/11 04:05:00;;;;;;;10.32;4.28;;;;;;;1.61;100.00;100454.69;1762086;80;21514;-70
2022/10/11 04:07:27;;;;;;;8.33;5.42;;;;;;;1.61;100.00;100457.87;1766173;80;21022;-69
2022/10/11 04:09:53;;;;;;;9.30;5.05;;;;;;;1.57;100.00;100456.61;1756935;80;20983;-69
2022/10/11 04:12:20;;;;;;;6.45;4.22;;;;;;;1.59;100.00;100452.73;1767058;80;21030;-69
2022/10/11 04:14:48;;;;;;;8.90;4.40;;;;;;;1.64;100.00;100456.14;1754978;80;21046;-69
2022/10/11 04:17:14;;;;;;;8.48;4.03;;;;;;;1.69;100.00;100457.23;1755238;81;21686;-69
2022/10/11 04:19:41;;;;;;;11.78;4.20;;;;;;;1.75;100.00;100457.77;1757551;80;21022;-69
2022/10/11 04:22:08;;;;;;;9.08;4.17;;;;;;;1.77;100.00;100452.22;1761048;80;20994;-69
2022/10/11 04:24:35;;;;;;;7.12;4.00;;;;;;;1.74;100.00;100459.30;1757451;80;21034;-70
2022/10/11 04:27:01;;;;;;;8.35;4.03;;;;;;;1.75;100.00;100452.91;1763377;80;21007;-69
2022/10/11 04:29:28;;;;;;;6.10;4.08;;;;;;;1.81;100.00;100454.80;1761711;80;20967;-69
2022/10/11 04:31:55;;;;;;;;;;;;;;;1.86;100.00;100457.73;1763110;80;21493;-70
2022/10/11 04:34:21;;;;;;;5.90;3.80;;;;;;;1.89;100.00;100455.98;1756111;80;20116;-70
2022/10/11 04:36:48;;;;;;;8.20;4.22;;;;;;;1.85;100.00;100463.61;1757603;80;21026;-70
2022/10/11 04:39:15;;;;;;;7.50;4.10;;;;;;;1.84;100.00;100457.91;1754796;80;20996;-69
2022/10/11 04:41:41;;;;;;;8.03;4.40;;;;;;;1.84;100.00;100459.80;1763356;80;21030;-69
2022/10/11 04:44:08;;;;;;;7.45;3.62;;;;;;;1.88;100.00;100464.55;1757604;80;20983;-70
2022/10/11 04:46:34;;;;;;;6.90;3.95;;;;;;;1.92;100.00;100463.64;1761222;80;21027;-69
2022/10/11 04:49:00;;;;;;;6.00;3.90;;;;;;;1.93;100.00;100466.14;1762064;80;21002;-69
2022/10/11 04:51:27;;;;;;;8.73;4.45;;;;;;;1.94;100.00;100465.13;1759629;80;21887;-69
2022/10/11 04:53:53;;;;;;;;;;;;;;;1.98;100.00;100470.93;1769659;81;21000;-69
2022/10/11 04:56:20;;;;;;;8.88;5.25;;;;;;;1.94;100.00;100464.30;1760494;80;20132;-70
2022/10/11 04:58:52;;;;;;;9.45;5.12;;;;;;;1.85;100.00;100460.92;1755269;80;20975;-69
2022/10/11 05:01:17;;;;;;;7.95;4.60;;;;;;;1.88;100.00;100459.19;1763519;80;21026;-70
2022/10/11 05:03:43;;;;;;;8.78;5.10;;;;;;;1.95;100.00;100462.73;1776090;80;20959;-69
2022/10/11 05:06:10;;;;;;;7.30;4.70;;;;;;;2.06;100.00;100457.83;1769209;81;21031;-69
2022/10/11 05:08:36;;;;;;;;;;;;;;;2.13;100.00;100454.66;1762330;80;20943;-69
2022/10/11 05:11:06;;;;;;;11.45;5.30;;;;;;;2.15;100.00;100456.14;1758016;80;20113;-69
2022/10/11 05:13:34;;;;;;;8.70;5.37;;;;;;;2.11;100.00;100457.56;1760216;80;21014;-70
2022/10/11 05:16:00;;;;;;;9.43;5.17;;;;;;;2.16;100.00;100453.74;1758254;80;21624;-70
2022/10/11 05:18:26;;;;;;;11.25;5.92;;;;;;;2.27;100.00;100455.86;1723322;82;20991;-69
2022/10/11 05:21:17;;;;;;;9.35;5.70;;;;;;;2.36;100.00;100452.50;1732040;82;21022;-70
2022/10/11 05:23:44;;;;;;;11.10;6.42;;;;;;;2.44;100.00;100455.81;1733186;82;21490;-70
2022/10/11 05:26:10;;;;;;;;;;;;;;;2.49;100.00;100451.19;1706774;83;21035;-69
2022/10/11 05:28:37;;;;;;;220.52;122.87;;;;;;;2.52;100.00;100452.12;1707696;82;20111;-70
2022/10/11 05:31:04;;;;;;;38.15;23.30;;;;;;;2.57;100.00;100458.25;1722743;82;21016;-69
2022/10/11 05:33:30;;;;;;;67.60;42.67;;;;;;;2.65;100.00;100456.73;1721066;82;20995;-69
2022/10/11 05:35:57;;;;;;;57.38;35.65;;;;;;;2.76;100.00;100461.00;1720914;83;21593;-70
2022/10/11 05:38:23;;;;;;;13.50;9.85;;;;;;;2.92;100.00;100462.46;1717814;83;20996;-69
2022/10/11 05:40:50;;;;;;;14.40;8.60;;;;;;;3.15;100.00;100472.85;1709467;82;20982;-69
2022/10/11 05:43:17;;;;;;;9.43;6.50;;;;;;;3.38;100.00;100478.64;1702158;82;21040;-69
2022/10/11 05:45:43;;;;;;;7.10;4.15;;;;;;;3.62;100.00;100471.27;1701062;83;21024;-69
2022/10/11 05:48:10;;;;;;;;;;;;;;;3.87;100.00;100476.83;1705443;82;20940;-70
2022/10/11 05:50:36;;;;;;;7.00;4.40;;;;;;;4.05;100.00;100481.04;1705252;84;20133;-70
2022/10/11 05:53:03;;;;;;;11.08;5.62;;;;;;;4.17;100.00;100483.92;1704284;83;20976;-69
2022/10/11 05:55:29;;;;;;;;;;;;;;;4.46;100.00;100482.06;1702765;83;21020;-69
2022/10/11 05:57:56;;;;;;;33.53;20.17;;;;;;;4.95;100.00;100480.86;1703053;84;20110;-69
2022/10/11 06:00:23;;;;;;;26.77;17.48;;;;;;;4.95;100.00;100480.86;1708969;83;21784;-70
2022/10/11 06:02:49;;;;;;;12.88;7.25;;;;;;;5.24;100.00;100479.42;1704236;83;21026;-70
2022/10/11 06:05:16;;;;;;;8.50;4.45;;;;;;;5.53;100.00;100484.16;1704442;82;21059;-69
2022/10/11 06:07:43;;;;;;;10.23;4.72;;;;;;;5.83;100.00;100474.02;1705996;83;21535;-69
2022/10/11 06:10:11;;;;;;;8.80;5.15;;;;;;;6.13;100.00;100480.92;1706056;83;20991;-67
2022/10/11 06:12:37;;;;;;;8.65;4.83;;;;;;;6.49;100.00;100474.13;1702538;83;21043;-67
2022/10/11 06:15:07;;;;;;;11.93;6.92;;;;;;;6.81;100.00;100470.69;1701540;83;20988;-67
2022/10/11 06:17:34;;;;;;;25.50;16.12;;;;;;;7.04;100.00;100473.50;1706362;84;21653;-67
2022/10/11 06:20:00;;;;;;;;;;;;;;;7.27;100.00;100469.48;1668240;82;21030;-66
2022/10/11 06:22:27;;;;;;;22.30;12.78;;;;;;;7.58;100.00;100464.83;1704235;83;20457;-67
2022/10/11 06:24:53;;;;;;;19.23;10.08;;;;;;;7.79;100.00;100471.02;1706686;84;21024;-66
2022/10/11 06:27:20;;;;;;;6.92;3.52;;;;;;;8.08;100.00;100470.60;1704938;83;21053;-67
2022/10/11 06:29:46;;;;;;;5.50;2.72;;;;;;;8.28;100.00;100465.61;1706337;83;21059;-66
2022/10/11 06:32:12;;;;;;;7.03;3.85;;;;;;;8.41;100.00;100468.08;1714091;82;21078;-67
2022/10/11 06:34:39;;;;;;;;;;;;;;;8.45;100.00;100470.08;1752395;82;21541;-67
2022/10/11 06:37:05;;;;;;;7.17;4.40;;;;;;;8.55;100.00;100465.38;1751774;81;20391;-67
2022/10/11 06:39:32;;;;;;;5.17;2.65;;;;;;;8.66;100.00;100467.23;1755558;80;21007;-67
2022/10/11 06:41:58;;;;;;;9.13;3.58;;;;;;;8.78;100.00;100466.67;1749315;80;21412;-66
2022/10/11 06:44:25;;;;;;;6.67;3.15;;;;;;;8.90;100.00;100463.89;1748769;81;21023;-67
2022/10/11 06:46:53;;;;;;;6.58;3.33;;;;;;;9.07;100.00;100459.31;1754676;81;21581;-67
2022/10/11 06:49:19;;;;;;;5.72;2.95;;;;;;;9.28;100.00;100453.73;1752058;80;21463;-67
2022/10/11 06:51:46;;;;;;;4.42;2.62;;;;;;;9.43;100.00;100447.98;1742764;80;20991;-67
2022/10/11 06:54:12;;;;;;;5.55;2.77;;;;;;;9.53;100.00;100445.96;1745405;81;21427;-67
2022/10/11 06:56:39;;;;;;;4.37;2.30;;;;;;;9.58;100.00;100439.80;1744922;81;21019;-66
2022/10/11 06:59:06;;;;;;;6.58;2.42;;;;;;;9.72;100.00;100441.09;1735718;82;21550;-66
2022/10/11 07:01:32;;;;;;;4.15;2.67;;;;;;;9.92;100.00;100436.77;1745206;80;21526;-66
2022/10/11 07:04:00;;;;;;;5.25;3.10;;;;;;;10.14;100.00;100426.45;1748902;80;20965;-66
2022/10/11 07:06:27;;;;;;;4.92;2.95;;;;;;;10.35;100.00;100427.03;1744188;80;21051;-67
2022/10/11 07:08:56;;;;;;;6.28;2.42;;;;;;;10.42;100.00;100428.48;1739943;81;21405;-67
2022/10/11 07:11:25;;;;;;;5.40;2.27;;;;;;;10.61;100.00;100426.80;1742810;80;21034;-67
2022/10/11 07:13:57;;;;;;;3.47;1.62;;;;;;;10.83;100.00;100427.59;1744453;80;21542;-67
2022/10/11 07:16:24;;;;;;;4.03;1.75;;;;;;;10.99;100.00;100422.03;1739302;82;21067;-66
2022/10/11 07:18:55;;;;;;;6.47;1.98;;;;;;;10.98;100.00;100417.66;1700386;82;20965;-65
2022/10/11 07:21:21;;;;;;;3.60;1.70;;;;;;;10.94;100.00;100414.37;1740706;80;21061;-67
2022/10/11 07:23:47;;;;;;;;;;;;;;;10.96;100.00;100415.75;1748793;80;21549;-67
2022/10/11 07:26:14;;;;;;;3.08;1.35;;;;;;;11.06;100.00;100412.82;1740004;80;20439;-68
2022/10/11 07:28:40;;;;;;;;;;;;;;;11.05;100.00;100412.03;1743313;80;21475;-68
2022/10/11 07:31:12;;;;;;;4.20;1.42;;;;;;;11.10;100.00;100414.78;1749211;80;20424;-67
2022/10/11 07:33:39;;;;;;;3.35;1.60;;;;;;;11.16;100.00;100414.30;1738957;80;21000;-67
2022/10/11 07:36:06;;;;;;;3.35;1.60;;;;;;;11.43;100.00;100409.08;1747400;80;21035;-67
2022/10/11 07:38:33;;;;;;;4.47;1.47;;;;;;;11.69;100.00;100410.63;1748421;81;20932;-67
2022/10/11 07:41:04;;;;;;;2.80;1.67;;;;;;;11.85;100.00;100410.48;1757987;81;21016;-67
2022/10/11 07:43:31;;;;;;;4.12;2.08;;;;;;;11.96;100.00;100405.91;1752395;80;20954;-66
2022/10/11 07:46:02;;;;;;;2.92;1.50;;;;;;;12.03;100.00;100396.11;1746804;82;21094;-65
2022/10/11 07:48:25;;;;;;;3.62;1.20;;;;;;;12.24;100.00;100400.04;1749237;80;21042;-66
2022/10/11 07:50:52;;;;;;;;;;;;;;;12.51;100.00;100400.39;1751402;80;21004;-66
2022/10/11 07:53:19;;;;;;;3.77;1.87;;;;;;;12.59;100.00;100396.61;1750630;80;20110;-66
2022/10/11 07:55:45;;;;;;;3.05;1.55;;;;;;;12.60;100.00;100392.80;1729497;82;21007;-66
2022/10/11 07:58:12;;;;;;;2.75;1.07;;;;;;;12.73;100.00;100382.71;1725754;82;20983;-66
2022/10/11 08:00:41;;;;;;;;;;;;;;;12.96;100.00;100386.86;1752998;81;21027;-67
2022/10/11 08:03:07;;;;;;;2.55;0.98;;;;;;;13.10;100.00;100380.34;1748496;80;20512;-66
2022/10/11 08:05:36;;;;;;;1.92;0.50;;;;;;;13.11;100.00;100369.69;1750034;80;20975;-69
2022/10/11 08:08:03;;;;;;;2.33;0.70;;;;;;;13.19;100.00;100369.95;1724727;82;20956;-68
2022/10/11 08:10:37;;;;;;;1.98;0.57;;;;;;;13.25;100.00;100370.78;1702043;84;21004;-69
2022/10/11 08:13:06;;;;;;;1.20;0.50;;;;;;;13.27;100.00;100363.94;1697706;83;20956;-69
2022/10/11 08:15:32;;;;;;;1.85;0.70;;;;;;;13.36;100.00;100369.11;1753425;80;20962;-69
2022/10/11 08:18:00;;;;;;;0.80;0.40;;;;;;;13.56;100.00;100369.66;1748964;80;21027;-66
2022/10/11 08:22:38;;;;;;;2.83;0.90;;;;;;;13.69;100.00;100354.57;1802030;78;23140;-66
2022/10/11 08:25:05;;;;;;;2.12;0.40;;;;;;;13.63;100.00;100352.95;1774102;79;21459;-67
2022/10/11 08:27:31;;;;;;;1.00;0.50;;;;;;;13.79;100.00;100358.10;1759009;79;21395;-69
2022/10/11 08:29:58;;;;;;;8.63;6.25;;;;;;;13.83;100.00;100359.19;1768669;80;21458;-70
2022/10/11 08:32:24;;;;;;;1.50;0.70;;;;;;;13.82;100.00;100347.96;1774700;80;21538;-68
2022/10/11 08:34:51;;;;;;;1.25;0.50;;;;;;;13.85;100.00;100352.08;1773591;79;21006;-68
2022/10/11 08:37:18;;;;;;;;;;;;;;;13.91;100.00;100350.95;1775482;79;21541;-68
2022/10/11 08:39:46;;;;;;;1.45;0.50;;;;;;;13.98;100.00;100347.92;1773381;80;20112;-68
2022/10/11 08:42:24;;;;;;;;;;;;;;;13.94;100.00;100350.40;1786396;79;21030;-69
2022/10/11 08:44:54;;;;;;;1.70;0.80;;;;;;;13.91;100.00;100349.05;1771066;79;20434;-68
2022/10/11 08:47:30;;;;;;;1.17;0.60;;;;;;;13.85;100.00;100341.92;1787614;78;21062;-69
2022/10/11 08:49:57;;;;;;;3.10;0.80;;;;;;;14.00;100.00;100347.91;1774285;80;20972;-67
2022/10/11 08:52:47;;;;;;;1.60;0.75;;;;;;;14.05;100.00;100342.42;1771909;79;21096;-67
2022/10/11 08:55:43;;;;;;;1.42;0.70;;;;;;;14.01;100.00;100337.78;1766080;80;21619;-69
2022/10/11 08:58:14;;;;;;;1.90;0.80;;;;;;;13.97;100.00;100345.73;1773428;80;21498;-68
2022/10/11 09:00:40;;;;;;;1.50;0.65;;;;;;;13.96;100.00;100342.72;1771300;80;21023;-69
2022/10/11 09:03:43;;;;;;;2.10;0.75;;;;;;;13.99;100.00;100335.34;1772355;80;21016;-69
2022/10/11 09:06:40;;;;;;;2.50;0.60;;;;;;;14.12;100.00;100332.53;1779466;80;21097;-68
2022/10/11 09:09:33;;;;;;;1.70;0.80;;;;;;;14.17;100.00;100325.68;1734654;81;20974;-68
2022/10/11 09:12:14;;;;;;;1.75;0.70;;;;;;;14.23;100.00;100324.55;1739145;79;21528;-67
2022/10/11 09:15:10;;;;;;;2.83;0.78;;;;;;;14.24;100.00;100328.94;1785125;79;20935;-67
2022/10/11 09:18:08;;;;;;;1.37;0.53;;;;;;;14.33;100.00;100327.23;1781530;79;21010;-68
2022/10/11 09:20:59;;;;;;;0.57;0.42;;;;;;;14.39;100.00;100324.20;1772980;80;20979;-68
2022/10/11 09:23:57;;;;;;;1.10;0.50;;;;;;;14.37;100.00;100322.31;1768107;80;21475;-68
2022/10/11 09:27:03;;;;;;;1.90;0.40;;;;;;;14.33;100.00;100325.31;1753839;81;21056;-69
2022/10/11 09:29:59;;;;;;;1.10;0.70;;;;;;;14.34;100.00;100317.41;1773983;80;21015;-67
2022/10/11 09:32:33;;;;;;;1.20;0.30;;;;;;;14.41;99.24;100321.20;1756238;80;21027;-68
2022/10/11 09:35:12;;;;;;;0.50;0.30;;;;;;;14.42;97.78;100320.90;1758650;80;20995;-69
2022/10/11 09:38:02;;;;;;;2.27;0.40;;;;;;;14.50;94.02;100318.66;1752878;80;21036;-66
2022/10/11 09:41:04;;;;;;;1.87;0.50;;;;;;;14.64;93.80;100311.45;1755918;80;21012;-68
2022/10/11 09:43:31;;;;;;;1.77;0.60;;;;;;;14.78;94.22;100312.44;1768975;80;20996;-69
2022/10/11 09:45:57;;;;;;;;;;;;;;;14.77;92.17;100312.98;1765257;80;21086;-70
2022/10/11 09:48:31;;;;;;;1.35;0.30;;;;;;;14.72;89.94;100308.11;1766503;80;20101;-68
2022/10/11 09:51:05;;;;;;;1.00;0.30;;;;;;;14.61;91.51;100310.10;1760403;80;21039;-69
2022/10/11 09:53:54;;;;;;;0.93;0.33;;;;;;;14.61;92.18;100312.02;1763723;79;21838;-69
2022/10/11 09:56:22;;;;;;;1.20;0.40;;;;;;;14.50;86.49;100310.45;1755682;80;21025;-68
2022/10/11 09:58:48;;;;;;;2.08;0.65;;;;;;;14.30;86.39;100303.15;1758196;81;20964;-68
2022/10/11 10:01:23;;;;;;;3.35;0.78;;;;;;;14.19;88.64;100305.13;1762729;80;21505;-68
2022/10/11 10:04:11;;;;;;;2.65;0.93;;;;;;;14.16;93.87;100302.13;1755225;81;21027;-70
2022/10/11 10:06:38;;;;;;;3.10;0.90;;;;;;;14.20;98.70;100293.08;1769046;80;21573;-71
2022/10/11 10:09:25;;;;;;;1.52;0.65;;;;;;;14.31;100.00;100293.27;1768199;80;20932;-69
2022/10/11 10:11:55;;;;;;;2.72;0.90;;;;;;;14.42;100.00;100299.53;1770335;81;21047;-69
2022/10/11 10:14:28;;;;;;;1.92;0.50;;;;;;;14.41;100.00;100293.27;1755550;81;20964;-68
2022/10/11 10:17:07;;;;;;;2.15;0.70;;;;;;;14.34;100.00;100294.67;1766158;80;21585;-70
2022/10/11 10:19:49;;;;;;;2.00;0.80;;;;;;;14.24;99.66;100292.75;1738668;81;20971;-71
2022/10/11 10:22:22;;;;;;;2.52;0.90;;;;;;;14.13;100.00;100295.30;1704213;81;21094;-72
2022/10/11 10:24:49;;;;;;;3.22;1.40;;;;;;;14.07;100.00;100290.11;1669490;85;20990;-69
2022/10/11 10:27:26;;;;;;;3.52;1.20;;;;;;;14.02;100.00;100291.52;1693300;84;21458;-68
2022/10/11 10:30:12;;;;;;;2.60;0.90;;;;;;;14.00;100.00;100292.34;1692211;84;20958;-72
2022/10/11 10:33:05;;;;;;;1.77;0.53;;;;;;;14.00;100.00;100287.69;1741041;82;21093;-71
2022/10/11 10:35:55;;;;;;;2.08;0.60;;;;;;;14.04;100.00;100283.83;1745871;82;21583;-73
2022/10/11 10:38:44;;;;;;;1.67;0.50;;;;;;;13.99;100.00;100287.98;1738044;82;20984;-69
2022/10/11 10:41:12;;;;;;;2.00;0.47;;;;;;;13.88;98.80;100286.66;1706957;82;21018;-76
2022/10/11 10:43:40;;;;;;;1.95;0.60;;;;;;;13.84;100.00;100277.37;1731975;81;21018;-77
2022/10/11 10:46:41;;;;;;;1.30;0.40;;;;;;;13.90;100.00;100280.34;1705756;83;21022;-75
2022/10/11 10:49:44;;;;;;;1.35;0.60;;;;;;;13.97;100.00;100274.56;1730573;81;21000;-77
2022/10/11 10:52:43;;;;;;;2.25;0.50;;;;;;;13.99;100.00;100266.91;1729874;81;20988;-77
2022/10/11 10:55:21;;;;;;;1.20;0.50;;;;;;;14.08;100.00;100262.47;1731729;81;21059;-77
2022/10/11 10:58:09;;;;;;;1.45;0.50;;;;;;;14.18;100.00;100262.41;1740770;81;21044;-78
2022/10/11 11:00:41;;;;;;;1.70;0.68;;;;;;;14.31;99.60;100259.03;1731907;82;21071;-76
2022/10/11 11:03:31;;;;;;;1.40;0.60;;;;;;;14.25;90.98;100256.61;1704567;82;21545;-76
2022/10/11 11:06:07;;;;;;;2.35;0.40;;;;;;;14.19;90.06;100243.52;1727546;81;21214;-76
2022/10/11 11:09:20;;;;;;;4.47;0.80;;;;;;;14.15;89.62;100246.55;1696928;84;21090;-77
2022/10/11 11:12:18;;;;;;;0.90;0.50;;;;;;;14.16;88.23;100247.37;1702277;84;21135;-75
2022/10/11 11:15:16;;;;;;;1.40;0.60;;;;;;;14.11;82.72;100233.70;1710594;83;21158;-77
2022/10/11 11:18:03;;;;;;;1.87;0.62;;;;;;;14.11;82.43;100233.16;1697043;84;21414;-77
2022/10/11 11:21:06;;;;;;;1.20;0.50;;;;;;;14.11;81.82;100229.05;1693805;84;21095;-78
2022/10/11 11:23:56;;;;;;;3.60;0.60;;;;;;;14.21;78.50;100228.16;1671141;84;21157;-77
2022/10/11 11:26:41;;;;;;;4.12;0.72;;;;;;;14.27;79.59;100222.39;1702939;83;21698;-74
2022/10/11 11:29:20;;;;;;;3.15;0.60;;;;;;;14.37;77.60;100220.98;1710039;84;21060;-75
2022/10/11 11:32:15;;;;;;;1.90;0.60;;;;;;;14.39;73.17;100217.39;1715831;83;21109;-74
2022/10/11 11:34:57;;;;;;;1.12;0.60;;;;;;;14.39;69.39;100218.75;1658725;83;21385;-74
2022/10/11 11:37:38;;;;;;;2.05;0.62;;;;;;;14.38;67.68;100216.32;1666238;83;21662;-76
2022/10/11 11:40:18;;;;;;;2.02;0.80;;;;;;;14.42;65.79;100218.73;1708902;81;21181;-75
2022/10/11 11:42:52;;;;;;;1.57;0.65;;;;;;;14.44;65.71;100215.99;1706823;82;21083;-76
2022/10/11 11:45:27;;;;;;;3.30;0.90;;;;;;;14.43;64.29;100214.34;1695607;83;21063;-75
2022/10/11 11:48:05;;;;;;;1.98;0.98;;;;;;;14.47;63.72;100205.55;1706341;82;21077;-76
2022/10/11 11:50:41;;;;;;;1.87;0.80;;;;;;;14.52;62.99;100206.90;1725098;81;21629;-76
2022/10/11 11:53:13;;;;;;;2.35;0.80;;;;;;;14.50;62.67;100200.33;1690538;84;21038;-76
2022/10/11 11:56:03;;;;;;;2.40;0.90;;;;;;;14.48;62.52;100201.72;1704536;82;21574;-76
2022/10/11 11:58:42;;;;;;;2.05;0.90;;;;;;;14.42;62.49;100196.27;1705093;82;21038;-77
2022/10/11 12:01:44;;;;;;;2.08;0.90;;;;;;;14.43;64.72;100203.94;1708000;82;21174;-77
2022/10/11 12:04:31;;;;;;;2.27;0.75;;;;;;;14.47;65.59;100195.97;1666315;82;21433;-77
2022/10/11 12:07:05;;;;;;;3.30;1.00;;;;;;;14.50;65.31;100198.95;1703959;82;21043;-75